Time;durP1;ratioP1;P1;durP2;ratioP2;P2;SDS_P1;SDS_P2;PMS_P1;PMS_P2;Temp;Humidity;BMP_temperature;BMP_pressure;BME280_temperature;BME280_humidity;BME280_pressure;Samples;Min_cycle;Max_cycle;Signal;HPM_P1;HPM_P2
2022/05/04 00:01:23;;;;;;;5.95;3.40;;;;;;;9.64;71.71;101992.19;5074756;28;20075;-34
2022/05/04 00:03:48;;;;;;;6.70;3.60;;;;;;;9.69;71.28;101997.00;5074308;28;20341;-34
2022/05/04 00:06:13;;;;;;;6.67;3.43;;;;;;;9.70;71.25;101994.09;5074098;28;20436;-33
2022/05/04 00:08:39;;;;;;;6.77;3.20;;;;;;;9.66;72.03;101986.59;5073739;28;20369;-33
2022/05/04 00:11:05;;;;;;;7.77;4.00;;;;;;;9.72;72.12;101991.22;5074740;28;20111;-33
2022/05/04 00:13:31;;;;;;;8.77;3.55;;;;;;;9.64;71.69;101986.81;5073869;28;20036;-33
2022/05/04 00:15:57;;;;;;;4.97;3.42;;;;;;;9.47;70.86;101966.53;5073864;28;20111;-33
2022/05/04 00:18:22;;;;;;;8.70;3.75;;;;;;;9.55;72.40;101991.50;5073676;28;20116;-33
2022/05/04 00:20:48;;;;;;;6.63;3.27;;;;;;;9.59;72.60;101991.13;5075233;28;20131;-33
2022/05/04 00:23:13;;;;;;;6.30;3.80;;;;;;;9.51;72.89;101997.50;5074273;28;20445;-33
2022/05/04 00:25:39;;;;;;;7.10;3.37;;;;;;;9.65;72.17;101995.72;5073698;28;20396;-33
2022/05/04 00:28:04;;;;;;;8.55;3.80;;;;;;;9.66;71.38;101994.69;5073674;28;20071;-33
2022/05/04 00:30:30;;;;;;;6.00;3.20;;;;;;;9.62;72.51;101993.44;5073651;28;20028;-33
2022/05/04 00:32:56;;;;;;;8.13;3.50;;;;;;;9.56;71.97;101989.63;5073290;28;20032;-33
2022/05/04 00:35:21;;;;;;;7.80;3.97;;;;;;;9.58;71.47;101994.88;5074154;28;20424;-34
2022/05/04 00:37:46;;;;;;;8.10;2.95;;;;;;;9.48;72.07;101970.91;5074012;28;20051;-33
2022/05/04 00:40:12;;;;;;;5.77;3.30;;;;;;;9.60;72.11;101995.50;5074202;28;20034;-33
2022/05/04 00:42:38;;;;;;;6.95;3.47;;;;;;;9.58;71.65;101986.75;5073152;28;20024;-33
2022/05/04 00:45:04;;;;;;;7.70;3.15;;;;;;;9.56;71.88;101989.63;5074155;28;20032;-33
2022/05/04 00:47:29;;;;;;;6.32;3.50;;;;;;;9.60;71.86;101992.78;5073198;28;20032;-33
2022/05/04 00:49:56;;;;;;;6.27;2.90;;;;;;;9.59;71.71;101988.44;5073105;28;20460;-33
2022/05/04 00:52:22;;;;;;;8.23;3.40;;;;;;;9.57;71.54;101990.50;5073189;28;20478;-33
2022/05/04 00:54:50;;;;;;;6.68;3.10;;;;;;;9.58;71.97;101992.16;5073229;28;20036;-33
2022/05/04 00:58:54;;;;;;;7.25;3.15;;;;;;;9.53;72.84;101987.34;5073981;28;20455;-33
2022/05/04 01:00:03;;;;;;;;;;;;;;;9.74;71.18;101991.84;5074051;28;20094;-33
2022/05/04 01:02:28;;;;;;;7.13;3.10;;;;;;;9.63;71.50;101978.91;5073143;28;20318;-33
2022/05/04 01:04:54;;;;;;;7.50;3.13;;;;;;;9.60;70.84;101982.00;5073606;28;20104;-33
2022/05/04 01:07:21;;;;;;;7.20;2.97;;;;;;;9.63;71.98;101977.03;5073927;28;20032;-33
2022/05/04 01:09:47;;;;;;;5.65;2.80;;;;;;;9.56;71.71;101965.34;5072999;28;20438;-33
2022/05/04 01:12:12;;;;;;;6.13;2.87;;;;;;;9.69;71.05;101976.25;5073915;28;20024;-33
2022/05/04 01:14:37;;;;;;;6.37;2.80;;;;;;;9.50;71.50;101953.47;5073455;28;20081;-33
2022/05/04 01:17:03;;;;;;;4.57;2.73;;;;;;;9.58;72.11;101973.25;5073283;28;20114;-33
2022/05/04 01:19:28;;;;;;;6.90;2.88;;;;;;;9.60;70.40;101980.13;5072933;28;20135;-33
2022/05/04 01:21:53;;;;;;;8.77;3.70;;;;;;;9.60;71.59;101987.38;5072675;28;20088;-33
2022/05/04 01:24:19;;;;;;;6.57;3.17;;;;;;;9.57;71.42;101977.00;5073614;28;20036;-33
2022/05/04 01:26:44;;;;;;;8.33;2.87;;;;;;;9.57;71.65;101980.53;5073457;28;20075;-33
2022/05/04 01:29:10;;;;;;;8.00;3.10;;;;;;;9.58;71.28;101978.66;5072871;28;20477;-33
2022/05/04 01:31:35;;;;;;;6.67;3.30;;;;;;;9.47;71.92;101977.34;5073154;28;20457;-33
2022/05/04 01:34:00;;;;;;;6.77;3.50;;;;;;;9.46;71.28;101979.19;5073134;28;20350;-33
2022/05/04 01:36:25;;;;;;;5.50;2.70;;;;;;;9.50;71.35;101977.75;5072559;28;20361;-33
2022/05/04 01:38:51;;;;;;;6.73;2.97;;;;;;;9.44;71.06;101972.31;5073114;28;20032;-33
2022/05/04 01:44:00;;;;;;;7.63;3.00;;;;;;;9.38;70.12;101971.25;5072953;28;20040;-33
2022/05/04 01:46:25;;;;;;;8.57;3.00;;;;;;;9.46;70.46;101975.66;5073296;28;20028;-33
2022/05/04 01:48:51;;;;;;;9.02;3.45;;;;;;;9.07;70.65;101943.78;5072706;28;20417;-33
2022/05/04 01:51:16;;;;;;;9.23;3.00;;;;;;;9.34;70.71;101971.84;5072727;28;20035;-33
2022/05/04 01:53:44;;;;;;;4.70;2.60;;;;;;;9.31;71.16;101967.63;5073340;28;20043;-33
2022/05/04 01:56:11;;;;;;;8.13;2.72;;;;;;;9.15;71.19;101967.94;5072888;28;20037;-33
2022/05/04 01:58:36;;;;;;;9.95;3.30;;;;;;;9.17;71.08;101973.94;5072437;28;20068;-34
2022/05/04 02:01:02;;;;;;;7.57;2.63;;;;;;;9.20;71.63;101969.00;5073948;28;20113;-33
2022/05/04 02:03:28;;;;;;;7.30;3.17;;;;;;;9.14;70.51;101977.06;5076380;28;20036;-33
2022/05/04 02:05:54;;;;;;;;;;;;;;;9.28;70.53;101981.53;5077590;28;20265;-33
2022/05/04 02:08:19;;;;;;;5.65;2.60;;;;;;;9.24;70.83;101980.25;5076985;28;19995;-33
2022/05/04 02:10:45;;;;;;;6.70;2.50;;;;;;;9.07;71.05;101976.97;5076574;28;20028;-33
2022/05/04 02:13:10;;;;;;;10.07;2.83;;;;;;;8.99;71.07;101977.13;5076455;28;20028;-33
2022/05/04 02:15:35;;;;;;;8.10;2.73;;;;;;;9.06;71.70;101972.63;5075971;28;20039;-33
2022/05/04 02:18:00;;;;;;;6.77;2.80;;;;;;;8.95;71.90;101976.66;5076178;28;20103;-33
2022/05/04 02:20:26;;;;;;;8.40;2.97;;;;;;;9.00;71.00;101971.53;5077085;28;20091;-33
2022/05/04 02:22:51;;;;;;;8.57;2.50;;;;;;;8.96;72.13;101975.63;5075709;28;20417;-33
2022/05/04 02:25:17;;;;;;;9.13;3.03;;;;;;;8.80;71.64;101948.94;5076111;28;20476;-33
2022/05/04 02:27:42;;;;;;;8.23;2.70;;;;;;;8.95;71.43;101970.44;5074646;28;20047;-33
2022/05/04 02:30:08;;;;;;;10.50;3.10;;;;;;;8.87;71.09;101970.56;5076233;28;20039;-33
2022/05/04 02:32:34;;;;;;;9.40;2.65;;;;;;;8.88;71.71;101950.66;5075838;28;20028;-33
2022/05/04 02:37:55;;;;;;;6.10;2.45;;;;;;;9.05;71.32;101967.44;5076258;28;20043;-33
2022/05/04 02:40:20;;;;;;;6.10;2.40;;;;;;;8.91;71.30;101961.06;5075894;28;20525;-33
2022/05/04 02:42:46;;;;;;;6.70;2.55;;;;;;;8.99;71.59;101972.56;5075719;28;20101;-33
2022/05/04 02:45:12;;;;;;;7.95;2.35;;;;;;;8.95;71.39;101955.09;5075978;28;20381;-33
2022/05/04 02:47:38;;;;;;;9.02;2.60;;;;;;;8.87;71.65;101960.59;5076066;28;20055;-33
2022/05/04 02:50:05;;;;;;;8.10;3.15;;;;;;;8.93;71.88;101965.25;5075842;28;20021;-33
2022/05/04 02:52:30;;;;;;;;;;;;;;;9.07;70.73;101968.88;5075909;28;20029;-33
2022/05/04 02:54:55;;;;;;;7.57;2.53;;;;;;;8.80;72.37;101935.44;5076252;28;19974;-33
2022/05/04 02:57:22;;;;;;;10.77;3.93;;;;;;;8.98;72.17;101962.81;5075472;28;20277;-33
2022/05/04 02:59:47;;;;;;;;;;;;;;;9.14;71.07;101958.16;5076010;28;20043;-33
2022/05/04 03:02:27;;;;;;;8.80;3.33;;;;;;;8.99;72.18;101959.06;5075889;28;20264;-33
2022/05/04 03:04:54;;;;;;;4.88;2.55;;;;;;;8.96;72.31;101959.44;5076060;28;20447;-33
2022/05/04 03:07:20;;;;;;;4.95;2.40;;;;;;;8.92;71.91;101951.94;5074885;28;20465;-33
2022/05/04 03:09:45;;;;;;;8.20;3.20;;;;;;;8.89;71.52;101952.34;5075671;28;20044;-33
2022/05/04 03:12:11;;;;;;;8.10;3.00;;;;;;;8.85;71.99;101953.75;5074900;28;20259;-33
2022/05/04 03:14:36;;;;;;;10.90;3.60;;;;;;;8.77;72.19;101927.72;5075307;28;20040;-33
2022/05/04 03:17:01;;;;;;;8.33;3.03;;;;;;;8.86;72.99;101956.25;5075575;28;20099;-33
2022/05/04 03:19:27;;;;;;;7.30;2.93;;;;;;;8.87;72.48;101946.28;5073215;28;20405;-33
2022/05/04 03:21:53;;;;;;;6.50;2.90;;;;;;;8.91;72.28;101952.97;5074969;28;20263;-33
2022/05/04 03:24:19;;;;;;;9.65;3.10;;;;;;;8.80;72.56;101948.94;5074830;28;20275;-33
2022/05/04 03:26:44;;;;;;;7.60;3.00;;;;;;;8.84;72.40;101944.81;5075686;28;20032;-33
2022/05/04 03:29:10;;;;;;;9.73;3.30;;;;;;;8.65;72.98;101915.78;5074811;28;20094;-33
2022/05/04 03:31:35;;;;;;;5.82;2.85;;;;;;;8.74;72.39;101922.75;5074817;28;20416;-33
2022/05/04 03:34:01;;;;;;;6.65;3.03;;;;;;;8.89;72.80;101938.84;5074747;28;20089;-33
2022/05/04 03:36:27;;;;;;;5.57;3.10;;;;;;;8.86;72.30;101937.38;5075468;28;20056;-33
2022/05/04 03:38:53;;;;;;;8.40;3.00;;;;;;;8.79;72.85;101935.66;5074309;28;20170;-33
2022/05/04 03:41:18;;;;;;;8.57;3.25;;;;;;;8.83;72.36;101945.81;5074879;28;20038;-33
2022/05/04 03:43:44;;;;;;;6.30;3.17;;;;;;;8.80;72.81;101940.84;5074470;28;20134;-33
2022/05/04 03:46:19;;;;;;;8.02;4.07;;;;;;;8.63;73.80;101936.72;5074636;28;20024;-33
2022/05/04 03:48:52;;;;;;;8.77;3.27;;;;;;;8.66;73.15;101942.56;5074690;28;20028;-33
2022/05/04 03:51:21;;;;;;;6.03;2.97;;;;;;;8.61;73.04;101947.69;5074851;28;20271;-33
2022/05/04 03:53:48;;;;;;;6.00;2.83;;;;;;;8.59;73.73;101941.66;5074302;28;20090;-33
2022/05/04 03:56:14;;;;;;;10.52;3.28;;;;;;;8.57;72.93;101946.41;5074311;28;20039;-33
2022/05/04 03:58:40;;;;;;;;;;;;;;;8.69;72.31;101952.16;5074544;28;20016;-33
2022/05/04 04:01:05;;;;;;;11.15;3.20;;;;;;;8.42;73.61;101946.44;5074238;28;19912;-33
2022/05/04 04:03:31;;;;;;;7.97;3.20;;;;;;;8.22;73.76;101939.97;5074341;28;20101;-33
2022/05/04 04:05:56;;;;;;;7.68;3.42;;;;;;;8.05;75.54;101946.56;5074044;28;20032;-33
2022/05/04 04:08:22;;;;;;;9.18;3.75;;;;;;;7.98;75.45;101941.94;5073889;28;20071;-33
2022/05/04 04:10:49;;;;;;;6.77;3.10;;;;;;;8.06;75.25;101945.56;5074462;28;20032;-33
2022/05/04 04:13:15;;;;;;;8.55;3.35;;;;;;;8.01;76.04;101940.75;5073622;28;20600;-33
2022/05/04 04:15:40;;;;;;;;;;;;;;;8.15;74.16;101941.72;5074248;28;20040;-33
2022/05/04 04:18:06;;;;;;;6.72;3.70;;;;;;;7.91;75.56;101932.94;5073733;28;19916;-33
2022/05/04 04:23:15;;;;;;;7.18;2.78;;;;;;;7.97;75.23;101936.75;5073401;28;20052;-33
2022/05/04 04:25:40;;;;;;;11.00;3.43;;;;;;;7.97;75.60;101942.13;5073675;28;20030;-33
2022/05/04 04:28:06;;;;;;;6.38;2.80;;;;;;;7.98;75.15;101941.94;5073697;28;20024;-33
2022/05/04 04:30:32;;;;;;;7.10;3.10;;;;;;;7.93;75.48;101949.72;5073801;28;20044;-33
2022/05/04 04:32:57;;;;;;;7.50;3.65;;;;;;;7.91;75.33;101951.78;5073341;28;20124;-33
2022/05/04 04:35:22;;;;;;;8.83;3.37;;;;;;;7.83;76.07;101929.50;5073317;28;20483;-34
2022/05/04 04:37:48;;;;;;;6.20;3.13;;;;;;;7.95;75.91;101954.94;5073528;28;20033;-34
2022/05/04 04:40:13;;;;;;;9.57;3.53;;;;;;;7.90;75.49;101942.03;5074006;28;20082;-34
2022/05/04 04:42:39;;;;;;;7.53;3.13;;;;;;;7.90;75.27;101941.19;5073421;28;20100;-33
2022/05/04 04:45:05;;;;;;;9.93;3.47;;;;;;;7.89;76.24;101937.66;5073512;28;20074;-33
2022/05/04 04:47:30;;;;;;;;;;;;;;;8.15;74.56;101953.34;5073764;28;20051;-33
2022/05/04 04:49:59;;;;;;;7.33;3.10;;;;;;;7.94;75.12;101958.66;5073529;28;20367;-33
2022/05/04 04:52:24;;;;;;;7.90;3.42;;;;;;;7.92;76.34;101950.75;5074301;28;20266;-34
2022/05/04 04:54:50;;;;;;;11.23;4.40;;;;;;;7.97;76.41;101959.13;5073262;28;20032;-34
2022/05/04 04:57:16;;;;;;;8.40;3.33;;;;;;;7.85;76.83;101943.59;5073829;28;20197;-34
2022/05/04 04:59:42;;;;;;;13.55;3.35;;;;;;;7.99;75.34;101953.53;5073174;28;20031;-34
2022/05/04 05:02:07;;;;;;;;;;;;;;;8.11;74.36;101953.91;5073410;28;20465;-34
2022/05/04 05:04:32;;;;;;;10.70;3.22;;;;;;;8.03;75.21;101956.69;5072894;28;19908;-34
2022/05/04 05:06:58;;;;;;;8.70;3.47;;;;;;;7.97;75.61;101956.44;5072915;28;20039;-34
2022/05/04 05:09:23;;;;;;;8.33;3.13;;;;;;;8.00;74.72;101961.44;5073142;28;20079;-34
2022/05/04 05:11:48;;;;;;;9.03;3.80;;;;;;;8.03;75.37;101951.31;5073370;28;20056;-34
2022/05/04 05:16:58;;;;;;;6.32;2.97;;;;;;;8.04;74.96;101947.59;5073286;28;20044;-34
2022/05/04 05:19:23;;;;;;;6.95;3.17;;;;;;;8.16;73.46;101960.41;5072818;28;20409;-34
2022/05/04 05:21:48;;;;;;;6.70;2.93;;;;;;;8.13;74.80;101943.78;5073717;28;20373;-33
2022/05/04 05:24:14;;;;;;;8.07;3.63;;;;;;;8.27;74.92;101967.16;5073212;28;20380;-34
2022/05/04 05:26:39;;;;;;;8.02;3.42;;;;;;;8.27;74.14;101962.63;5072746;28;20024;-33
2022/05/04 05:29:05;;;;;;;5.67;2.87;;;;;;;8.25;74.04;101969.22;5073388;28;20094;-34
2022/05/04 05:31:30;;;;;;;9.87;3.30;;;;;;;8.18;73.80;101969.13;5073116;28;20036;-33
2022/05/04 05:33:55;;;;;;;9.20;3.57;;;;;;;8.33;74.22;101961.03;5072749;28;20052;-34
2022/05/04 05:36:21;;;;;;;6.23;3.10;;;;;;;8.40;73.89;101945.81;5076482;28;20492;-34
2022/05/04 05:38:46;;;;;;;9.33;3.70;;;;;;;8.41;72.83;101938.56;5076883;28;20035;-34
2022/05/04 05:41:11;;;;;;;6.40;2.80;;;;;;;8.58;73.46;101956.16;5076905;28;20025;-33
2022/05/04 05:43:36;;;;;;;6.37;3.07;;;;;;;8.62;72.87;101957.44;5076558;28;20048;-34
2022/05/04 05:46:02;;;;;;;8.17;3.07;;;;;;;8.66;72.65;101955.22;5077365;28;20032;-34
2022/05/04 05:48:27;;;;;;;6.83;2.90;;;;;;;8.78;72.73;101956.34;5076670;28;20035;-34
2022/05/04 05:50:53;;;;;;;6.60;3.07;;;;;;;8.73;72.22;101956.94;5077170;28;20262;-34
2022/05/04 05:53:19;;;;;;;7.73;3.40;;;;;;;8.69;71.77;101960.22;5076433;28;20025;-34
2022/05/04 05:55:44;;;;;;;;;;;;;;;8.79;71.73;101960.75;5077710;28;20421;-34
2022/05/04 05:58:10;;;;;;;6.88;3.10;;;;;;;8.80;72.49;101958.88;5076987;28;19916;-34
2022/05/04 06:00:35;;;;;;;8.73;2.70;;;;;;;8.78;71.54;101961.75;5076321;28;20029;-33
2022/05/04 06:03:01;;;;;;;8.60;3.38;;;;;;;8.89;72.38;101969.34;5076303;28;20275;-34
2022/05/04 06:05:26;;;;;;;6.30;2.63;;;;;;;9.07;71.01;101968.06;5076012;28;20111;-34
2022/05/04 06:07:52;;;;;;;7.87;3.33;;;;;;;9.15;71.24;101967.94;5076195;28;20033;-34
2022/05/04 06:10:17;;;;;;;7.93;3.03;;;;;;;9.26;69.74;101967.41;5076778;28;20029;-33
2022/05/04 06:12:43;;;;;;;9.20;3.00;;;;;;;9.24;69.80;101964.91;5076615;28;20449;-34
2022/05/04 06:15:10;;;;;;;6.97;3.33;;;;;;;9.35;70.12;101974.31;5076393;28;20059;-34
2022/05/04 06:17:36;;;;;;;7.65;3.47;;;;;;;9.40;69.21;101971.88;5076537;28;20108;-34
2022/05/04 06:20:04;;;;;;;6.88;3.63;;;;;;;9.37;69.36;101966.03;5075916;28;20049;-34
2022/05/04 06:22:29;;;;;;;6.22;2.72;;;;;;;9.66;70.28;101973.09;5075788;28;20557;-34
2022/05/04 06:24:54;;;;;;;7.88;2.92;;;;;;;9.69;68.51;101978.09;5076410;28;20032;-34
2022/05/04 06:27:20;;;;;;;8.00;3.50;;;;;;;9.52;68.30;101953.28;5076421;28;20380;-34
2022/05/04 06:35:13;;;;;;;8.38;3.20;;;;;;;9.62;67.66;101967.28;5075565;28;20078;-34
2022/05/04 06:37:39;;;;;;;6.93;2.90;;;;;;;9.62;67.48;101969.16;5075768;28;20034;-34
2022/05/04 06:40:05;;;;;;;10.90;3.60;;;;;;;9.80;66.40;101972.16;5075558;28;20059;-34
2022/05/04 06:42:30;;;;;;;9.18;3.15;;;;;;;9.90;66.64;101969.09;5075862;28;20047;-34
2022/05/04 06:44:56;;;;;;;8.50;2.88;;;;;;;9.87;66.38;101978.44;5075580;28;20032;-34
2022/05/04 06:47:22;;;;;;;8.03;2.60;;;;;;;9.82;66.40;101972.81;5075589;28;20158;-34
2022/05/04 06:49:47;;;;;;;8.93;2.85;;;;;;;9.91;66.06;101978.88;5075687;28;20032;-34
2022/05/04 06:52:12;;;;;;;7.40;2.60;;;;;;;10.00;65.16;101983.94;5075386;28;20035;-34
2022/05/04 06:54:38;;;;;;;8.20;2.47;;;;;;;9.91;65.62;101979.72;5075331;28;20044;-34
2022/05/04 06:57:03;;;;;;;8.00;2.73;;;;;;;10.01;65.68;101979.34;5075639;28;20707;-34
2022/05/04 06:59:29;;;;;;;5.60;2.60;;;;;;;9.97;64.65;101967.28;5074930;28;20055;-34
2022/05/04 07:01:55;;;;;;;13.32;4.07;;;;;;;10.00;64.52;101980.38;5075424;28;20082;-34
2022/05/04 07:04:21;;;;;;;;;;;;;;;10.23;66.24;101972.81;5075799;28;20020;-34
2022/05/04 07:06:46;;;;;;;14.07;3.80;;;;;;;10.26;65.26;101971.59;5075982;28;19958;-34
2022/05/04 07:09:12;;;;;;;9.73;2.75;;;;;;;10.31;64.62;101964.56;5075174;28;20427;-34
2022/05/04 07:11:37;;;;;;;9.27;2.93;;;;;;;10.40;64.47;101978.75;5075455;28;20052;-34
2022/05/04 07:14:03;;;;;;;12.90;2.90;;;;;;;10.38;63.76;101974.56;5075313;28;20453;-33
2022/05/04 07:16:28;;;;;;;8.45;3.03;;;;;;;10.37;64.21;101979.13;5075293;28;20115;-33
2022/05/04 07:18:53;;;;;;;9.00;3.40;;;;;;;10.17;63.66;101951.16;5075218;28;20480;-33
2022/05/04 07:21:19;;;;;;;6.67;3.03;;;;;;;10.53;63.95;101973.34;5076040;28;20334;-33
2022/05/04 07:23:44;;;;;;;8.27;3.17;;;;;;;10.70;63.43;101968.44;5075210;28;20737;-34
2022/05/04 07:26:09;;;;;;;7.30;3.50;;;;;;;10.65;62.67;101967.38;5074869;28;20020;-33
2022/05/04 07:28:35;;;;;;;8.17;3.00;;;;;;;10.77;62.95;101954.91;5074452;28;20044;-34
2022/05/04 07:31:00;;;;;;;5.57;2.70;;;;;;;10.84;62.45;101961.19;5074540;28;20028;-33
2022/05/04 07:33:25;;;;;;;6.87;3.20;;;;;;;10.85;61.59;101965.53;5074764;28;20024;-33
2022/05/04 07:35:51;;;;;;;9.37;3.57;;;;;;;10.95;62.38;101967.84;5074671;28;20461;-33
2022/05/04 07:38:16;;;;;;;6.43;3.08;;;;;;;10.94;61.41;101969.72;5074464;28;20032;-33
2022/05/04 07:43:26;;;;;;;7.25;3.30;;;;;;;10.92;60.70;101960.97;5074760;28;20112;-34
2022/05/04 07:45:51;;;;;;;8.27;3.03;;;;;;;11.06;62.46;101969.94;5074199;28;20037;-34
2022/05/04 07:48:16;;;;;;;6.97;3.10;;;;;;;11.23;61.72;101967.69;5074424;28;20155;-34
2022/05/04 07:50:42;;;;;;;6.67;3.23;;;;;;;11.35;60.80;101966.00;5074193;28;20035;-34
2022/05/04 07:53:07;;;;;;;8.20;3.25;;;;;;;11.52;60.50;101969.13;5074146;28;20067;-34
2022/05/04 07:55:35;;;;;;;7.47;3.75;;;;;;;11.59;60.28;101962.63;5075054;28;20441;-34
2022/05/04 07:58:00;;;;;;;6.82;3.33;;;;;;;11.40;60.13;101962.66;5073828;28;20075;-34
2022/05/04 08:05:54;;;;;;;6.00;3.20;;;;;;;11.43;61.62;101973.09;5073781;28;20070;-34
2022/05/04 08:08:19;;;;;;;6.32;3.67;;;;;;;11.54;60.16;101975.97;5073946;28;20024;-34
2022/05/04 08:10:44;;;;;;;5.30;3.40;;;;;;;11.69;60.23;101978.47;5074543;28;20059;-34
2022/05/04 08:13:10;;;;;;;6.80;3.40;;;;;;;11.91;59.46;101981.81;5073726;28;20029;-34
2022/05/04 08:15:37;;;;;;;7.30;3.47;;;;;;;12.10;59.03;101974.63;5074022;28;20067;-33
2022/05/04 08:18:03;;;;;;;5.85;3.58;;;;;;;12.16;58.13;101978.41;5074442;28;20032;-34
2022/05/04 08:20:31;;;;;;;;;;;;;;;12.27;59.28;101975.00;5074865;28;20056;-34
2022/05/04 08:22:57;;;;;;;6.88;3.65;;;;;;;12.16;58.40;101972.97;5073653;28;19961;-33
2022/05/04 08:25:23;;;;;;;5.53;3.60;;;;;;;12.15;58.30;101974.00;5073960;28;20052;-33
2022/05/04 08:27:48;;;;;;;6.65;3.65;;;;;;;12.33;58.35;101966.00;5073827;28;20264;-34
2022/05/04 08:30:14;;;;;;;8.70;4.67;;;;;;;12.33;57.66;101969.56;5074610;28;20433;-34
2022/05/04 08:32:43;;;;;;;8.00;4.30;;;;;;;12.49;58.05;101968.25;5073649;28;20071;-34
2022/05/04 08:35:09;;;;;;;5.90;3.58;;;;;;;12.58;56.88;101969.63;5073887;28;20112;-34
2022/05/04 08:37:34;;;;;;;;;;;;;;;12.70;57.26;101974.41;5074248;28;20445;-34
2022/05/04 08:40:00;;;;;;;7.80;4.20;;;;;;;12.48;56.95;101977.41;5073278;28;19913;-34
2022/05/04 08:42:25;;;;;;;7.70;3.77;;;;;;;12.68;57.50;101977.31;5074091;28;20047;-34
2022/05/04 08:44:58;;;;;;;6.33;4.07;;;;;;;12.70;55.91;101977.09;5073702;28;20030;-34
2022/05/04 08:47:28;;;;;;;5.63;3.70;;;;;;;12.95;56.89;101969.03;5073468;28;20107;-34
2022/05/04 08:49:53;;;;;;;9.25;4.22;;;;;;;12.94;55.62;101976.34;5073948;28;20036;-34
2022/05/04 08:52:21;;;;;;;7.28;3.70;;;;;;;13.15;55.06;101975.97;5073810;28;20035;-34
2022/05/04 08:54:49;;;;;;;5.85;3.53;;;;;;;13.07;55.27;101970.78;5072873;28;20461;-34
2022/05/04 08:57:14;;;;;;;9.52;4.00;;;;;;;13.03;56.07;101968.72;5073233;28;20024;-35
2022/05/04 08:59:41;;;;;;;7.45;3.63;;;;;;;13.24;55.97;101970.28;5072801;28;20047;-34
2022/05/04 09:02:08;;;;;;;10.73;3.70;;;;;;;13.21;55.06;101967.97;5073796;28;20032;-34
2022/05/04 09:04:33;;;;;;;7.60;3.55;;;;;;;13.30;53.62;101959.38;5073027;28;20027;-34
2022/05/04 09:07:01;;;;;;;7.65;3.80;;;;;;;13.50;54.64;101967.34;5073156;28;20438;-34
2022/05/04 09:09:27;;;;;;;9.43;3.97;;;;;;;13.59;53.05;101954.31;5072953;28;20029;-34
2022/05/04 09:11:52;;;;;;;9.27;4.05;;;;;;;13.80;53.17;101950.31;5073814;28;20085;-34
2022/05/04 09:14:20;;;;;;;7.67;4.17;;;;;;;13.85;52.77;101959.47;5072686;28;20174;-34
2022/05/04 09:16:47;;;;;;;7.47;4.28;;;;;;;14.00;53.32;101956.38;5073043;28;20699;-34
2022/05/04 09:19:17;;;;;;;5.95;3.90;;;;;;;14.16;52.82;101960.38;5072563;28;20028;-34
2022/05/04 09:21:48;;;;;;;5.90;4.07;;;;;;;14.02;52.02;101964.31;5072180;28;20048;-34
2022/05/04 09:24:15;;;;;;;8.23;4.78;;;;;;;14.07;54.12;101935.38;5072801;28;20029;-34
2022/05/04 09:26:43;;;;;;;9.55;3.95;;;;;;;14.24;51.63;101954.63;5073063;28;20467;-34
2022/05/04 09:29:12;;;;;;;7.40;4.13;;;;;;;14.46;51.33;101944.09;5073492;28;20040;-33
2022/05/04 09:31:40;;;;;;;7.43;4.47;;;;;;;14.52;51.02;101945.91;5072643;28;20032;-34
2022/05/04 09:34:09;;;;;;;6.43;3.95;;;;;;;14.83;50.99;101944.00;5072808;28;20381;-34
2022/05/04 09:44:53;;;;;;;8.32;4.47;;;;;;;14.87;50.21;101926.13;5073733;28;20025;-34
2022/05/04 09:45:13;;;;;;;7.50;4.28;;;;;;;14.83;50.52;101933.09;5072729;28;20062;-34
2022/05/04 09:47:40;;;;;;;10.82;4.20;;;;;;;15.10;49.84;101926.19;5072942;28;20024;-33
2022/05/04 09:50:08;;;;;;;6.22;3.95;;;;;;;15.04;49.14;101927.13;5072629;28;20040;-34
2022/05/04 09:52:45;;;;;;;7.40;4.25;;;;;;;15.47;50.28;101942.34;5072835;28;20058;-34
2022/05/04 09:55:20;;;;;;;7.90;4.28;;;;;;;15.22;49.61;101933.53;5072465;28;20070;-34
2022/05/04 09:57:47;;;;;;;8.52;4.53;;;;;;;15.50;48.14;101933.66;5073443;28;20024;-34
2022/05/04 10:00:14;;;;;;;6.18;3.90;;;;;;;15.58;49.55;101930.59;5072802;28;20035;-34
2022/05/04 10:02:41;;;;;;;8.35;4.63;;;;;;;15.65;48.49;101934.06;5072563;28;20024;-33
2022/05/04 10:05:08;;;;;;;6.18;3.72;;;;;;;15.77;47.67;101931.31;5072663;28;20052;-33
2022/05/04 10:07:37;;;;;;;7.72;4.63;;;;;;;15.78;46.98;101922.06;5073067;28;20025;-34
2022/05/04 10:10:06;;;;;;;7.63;4.25;;;;;;;15.68;47.57;101930.84;5073054;28;20020;-34
2022/05/04 10:12:38;;;;;;;9.02;4.63;;;;;;;15.81;47.31;101940.69;5072585;28;20120;-34
2022/05/04 10:15:13;;;;;;;8.32;5.03;;;;;;;15.67;47.31;101921.03;5072922;28;20025;-33
2022/05/04 10:17:46;;;;;;;8.82;4.88;;;;;;;15.67;47.34;101934.66;5072363;28;20103;-34
2022/05/04 10:20:27;;;;;;;6.57;4.38;;;;;;;15.53;48.91;101900.50;5071186;28;20349;-34
2022/05/04 10:22:58;;;;;;;7.22;4.15;;;;;;;15.86;46.49;101924.44;5075475;28;20123;-34
2022/05/04 10:25:26;;;;;;;7.47;4.50;;;;;;;16.05;46.18;101927.81;5076584;28;20036;-34
2022/05/04 10:28:04;;;;;;;7.55;5.10;;;;;;;15.96;47.28;101912.91;5076457;28;20024;-34
2022/05/04 10:30:34;;;;;;;8.65;5.07;;;;;;;16.11;47.02;101921.41;5108572;28;20032;-34
2022/05/04 10:33:09;;;;;;;8.50;4.30;;;;;;;16.38;47.21;101916.19;5076308;28;20038;-34
2022/05/04 10:35:38;;;;;;;7.55;4.53;;;;;;;16.65;46.25;101916.44;5076719;28;20025;-34
2022/05/04 10:38:03;;;;;;;7.03;4.63;;;;;;;16.47;44.75;101919.38;5075612;28;20039;-34
2022/05/04 10:40:36;;;;;;;;;;;;;;;16.62;45.29;101916.94;5076710;28;20021;-34
2022/05/04 10:43:06;;;;;;;8.60;4.78;;;;;;;16.59;45.58;101914.69;5075781;28;19958;-35
2022/05/04 10:46:03;;;;;;;7.40;4.18;;;;;;;16.91;45.82;101912.28;5076088;28;20430;-34
2022/05/04 10:48:28;;;;;;;6.90;4.67;;;;;;;17.02;44.22;101921.47;5076016;28;20421;-34
2022/05/04 10:50:57;;;;;;;;;;;;;;;17.35;45.76;101914.34;5076642;28;20031;-34
2022/05/04 10:53:25;;;;;;;6.75;4.70;;;;;;;17.04;44.10;101911.13;5075548;28;19912;-34
2022/05/04 10:56:02;;;;;;;9.27;5.18;;;;;;;16.76;44.61;101916.66;5075447;28;20503;-34
2022/05/04 10:58:30;;;;;;;;;;;;;;;17.13;46.09;101909.66;5076316;28;20070;-34
2022/05/04 11:01:01;;;;;;;9.05;4.78;;;;;;;17.36;44.56;101910.53;5075311;28;20284;-34
2022/05/04 11:03:34;;;;;;;6.78;4.25;;;;;;;17.37;46.03;101899.34;5075323;28;20028;-34
2022/05/04 11:06:07;;;;;;;8.98;5.40;;;;;;;17.41;43.89;101905.13;5075864;28;20086;-34
2022/05/04 11:08:37;;;;;;;11.07;5.50;;;;;;;17.36;44.21;101892.22;5075656;28;20028;-34
2022/05/04 11:11:04;;;;;;;9.93;5.80;;;;;;;17.02;45.00;101896.88;5075267;28;20460;-34
2022/05/04 11:13:33;;;;;;;7.30;4.80;;;;;;;17.27;44.58;101901.09;5075101;28;20455;-34
2022/05/04 11:16:02;;;;;;;9.93;5.15;;;;;;;17.45;43.55;101892.63;5072726;28;20029;-34
2022/05/04 11:18:28;;;;;;;8.80;4.90;;;;;;;17.83;43.12;101899.19;5075042;28;20028;-34
2022/05/04 11:20:54;;;;;;;;;;;;;;;18.15;43.98;101897.38;5074355;28;20058;-34
2022/05/04 11:23:26;;;;;;;5.82;4.50;;;;;;;17.87;42.09;101884.75;5074039;28;20037;-34
2022/05/04 11:25:52;;;;;;;8.98;4.90;;;;;;;18.02;40.90;101884.09;5074637;28;20028;-34
2022/05/04 11:28:18;;;;;;;;;;;;;;;18.32;41.97;101874.59;5074394;28;20505;-34
2022/05/04 11:30:44;;;;;;;7.55;4.20;;;;;;;18.00;40.36;101869.84;5074663;28;19921;-34
2022/05/04 11:33:13;;;;;;;;;;;;;;;18.31;41.34;101887.44;5075117;28;20487;-34
2022/05/04 11:35:38;;;;;;;10.48;4.72;;;;;;;17.99;39.18;101892.81;5075164;28;19916;-34
2022/05/04 11:38:03;;;;;;;;;;;;;;;18.36;40.81;101882.03;5072755;28;20044;-34
2022/05/04 11:40:29;;;;;;;7.28;4.68;;;;;;;17.95;40.20;101880.72;5074426;28;19923;-34
2022/05/04 11:42:54;;;;;;;;;;;;;;;18.10;40.08;101878.16;5074887;28;20040;-34
2022/05/04 11:45:20;;;;;;;6.30;4.30;;;;;;;17.36;40.57;101877.72;5074146;28;19935;-34
2022/05/04 11:47:45;;;;;;;;;;;;;;;17.87;41.77;101883.94;5074489;28;20666;-34
2022/05/04 11:50:11;;;;;;;8.98;5.13;;;;;;;17.91;40.59;101874.09;5074667;28;19908;-34
2022/05/04 11:52:37;;;;;;;6.88;4.13;;;;;;;17.94;40.11;101870.88;5074309;28;20058;-34
2022/05/04 11:55:03;;;;;;;;;;;;;;;18.18;40.75;101860.47;5074813;28;20028;-34
2022/05/04 11:57:29;;;;;;;7.35;3.92;;;;;;;18.11;40.03;101865.31;5074497;28;19912;-35
2022/05/04 11:59:55;;;;;;;6.07;3.85;;;;;;;17.96;40.13;101861.34;5074443;28;20044;-34
2022/05/04 12:02:20;;;;;;;;;;;;;;;18.44;40.18;101861.53;5073898;28;20036;-34